86261 XLMO-UUMU
Flight info
| Callsign | 86261 |
|---|---|
| Flight time | N/A |
| Altitude | FL310 |
| Route | K0700F310 OLADA PILAN P65 ROMTA |
| Aircraft | IL76 |
Departure
| Time | N/A |
|---|---|
| Airport | XLMO |
Arrival
| Time | 2026-04-27 19:28 |
|---|---|
| Airport | Chkalovskiy Air Base (UUMU) |
| Time | Latitude | Longitude | Altitude | Speed | Heading |
|---|---|---|---|---|---|
| 2026-04-27 16:49 | 68.14442 | 33.45019 | 700 ft | 0 kts | 89° |
| 2026-04-27 16:49 | 68.14443 | 33.45024 | 700 ft | 2 kts | 89° |
| 2026-04-27 16:49 | 68.14440 | 33.45074 | 700 ft | 5 kts | 114° |
| 2026-04-27 16:49 | 68.14396 | 33.45097 | 700 ft | 8 kts | 193° |
| 2026-04-27 16:50 | 68.14333 | 33.45036 | 700 ft | 11 kts | 201° |
| 2026-04-27 16:50 | 68.14254 | 33.44954 | 700 ft | 14 kts | 201° |
| 2026-04-27 16:50 | 68.14159 | 33.44857 | 700 ft | 16 kts | 201° |
| 2026-04-27 16:50 | 68.14045 | 33.44749 | 700 ft | 18 kts | 198° |
| 2026-04-27 16:51 | 68.13917 | 33.44646 | 700 ft | 20 kts | 183° |
| 2026-04-27 16:51 | 68.13793 | 33.44810 | 700 ft | 21 kts | 144° |
| 2026-04-27 16:51 | 68.13713 | 33.45032 | 700 ft | 15 kts | 90° |
| 2026-04-27 16:51 | 68.13776 | 33.45176 | 700 ft | 5 kts | 20° |
| 2026-04-27 16:52 | 68.13778 | 33.45178 | 700 ft | 0 kts | 20° |
| 2026-04-27 16:53 | 68.13779 | 33.45179 | 700 ft | 0 kts | 20° |
| 2026-04-27 16:53 | 68.13780 | 33.45180 | 700 ft | 0 kts | 20° |
| 2026-04-27 16:54 | 68.13867 | 33.45265 | 700 ft | 42 kts | 19° |
| 2026-04-27 16:54 | 68.14348 | 33.45725 | 700 ft | 103 kts | 18° |
| 2026-04-27 16:54 | 68.15166 | 33.46508 | 766 ft | 141 kts | 17° |
| 2026-04-27 16:55 | 68.16156 | 33.47472 | 983 ft | 163 kts | 17° |
| 2026-04-27 16:55 | 68.17286 | 33.48598 | 1180 ft | 182 kts | 17° |
| 2026-04-27 16:55 | 68.18607 | 33.49893 | 1334 ft | 227 kts | 17° |
| 2026-04-27 16:55 | 68.20171 | 33.51404 | 1811 ft | 249 kts | 18° |
| 2026-04-27 16:56 | 68.21153 | 33.52364 | 2329 ft | 243 kts | 17° |
| 2026-04-27 16:56 | 68.23261 | 33.54536 | 3405 ft | 226 kts | 18° |
| 2026-04-27 16:56 | 68.24654 | 33.56131 | 4199 ft | 209 kts | 23° |
| 2026-04-27 16:56 | 68.25775 | 33.58590 | 4843 ft | 217 kts | 45° |
| 2026-04-27 16:57 | 68.26393 | 33.62514 | 5213 ft | 244 kts | 74° |
| 2026-04-27 16:57 | 68.26218 | 33.67260 | 5598 ft | 270 kts | 103° |
| 2026-04-27 16:57 | 68.25174 | 33.71618 | 6092 ft | 287 kts | 131° |
| 2026-04-27 16:57 | 68.23466 | 33.74431 | 6699 ft | 292 kts | 159° |
| 2026-04-27 16:58 | 68.21494 | 33.75344 | 7496 ft | 287 kts | 179° |
| 2026-04-27 16:58 | 68.19512 | 33.74763 | 8096 ft | 287 kts | 194° |
| 2026-04-27 16:58 | 68.17566 | 33.73203 | 8463 ft | 299 kts | 201° |
| 2026-04-27 16:58 | 68.15605 | 33.71337 | 9082 ft | 300 kts | 202° |
| 2026-04-27 16:59 | 68.13660 | 33.69332 | 9773 ft | 300 kts | 203° |
| 2026-04-27 16:59 | 68.11705 | 33.67285 | 10352 ft | 304 kts | 202° |
| 2026-04-27 16:59 | 68.09723 | 33.65268 | 10919 ft | 308 kts | 201° |
| 2026-04-27 16:59 | 68.07687 | 33.63410 | 11528 ft | 311 kts | 198° |
| 2026-04-27 17:00 | 68.04281 | 33.60088 | 12457 ft | 316 kts | 208° |
| 2026-04-27 17:00 | 68.02200 | 33.55208 | 13079 ft | 317 kts | 236° |
| 2026-04-27 17:00 | 68.01239 | 33.49973 | 13583 ft | 316 kts | 254° |
| 2026-04-27 17:01 | 68.00691 | 33.44305 | 14161 ft | 316 kts | 262° |
| 2026-04-27 17:01 | 68.00342 | 33.38787 | 14681 ft | 318 kts | 265° |
| 2026-04-27 17:01 | 68.00222 | 33.36465 | 14888 ft | 319 kts | 266° |
| 2026-04-27 17:01 | 67.99957 | 33.30643 | 15392 ft | 321 kts | 267° |
| 2026-04-27 17:02 | 67.99711 | 33.24694 | 15887 ft | 324 kts | 267° |
| 2026-04-27 17:02 | 67.99474 | 33.18690 | 16352 ft | 328 kts | 267° |
| 2026-04-27 17:02 | 67.99241 | 33.12604 | 16788 ft | 332 kts | 267° |
| 2026-04-27 17:02 | 67.99010 | 33.06492 | 17240 ft | 335 kts | 268° |
| 2026-04-27 17:03 | 67.98778 | 33.00295 | 17700 ft | 337 kts | 267° |
| 2026-04-27 17:03 | 67.98541 | 32.94084 | 18187 ft | 338 kts | 267° |
| 2026-04-27 17:03 | 67.98292 | 32.87877 | 18669 ft | 338 kts | 266° |
| 2026-04-27 17:03 | 67.98013 | 32.81644 | 19119 ft | 341 kts | 262° |
| 2026-04-27 17:04 | 67.97202 | 32.75706 | 19532 ft | 344 kts | 241° |
| 2026-04-27 17:04 | 67.95680 | 32.70826 | 19981 ft | 344 kts | 220° |
| 2026-04-27 17:04 | 67.93635 | 32.67566 | 20328 ft | 345 kts | 200° |
| 2026-04-27 17:04 | 67.91312 | 32.66269 | 20675 ft | 344 kts | 182° |
| 2026-04-27 17:05 | 67.89934 | 32.66209 | 20920 ft | 343 kts | 176° |
| 2026-04-27 17:05 | 67.86558 | 32.67062 | 21476 ft | 343 kts | 170° |
| 2026-04-27 17:05 | 67.84192 | 32.68043 | 21853 ft | 344 kts | 169° |
| 2026-04-27 17:05 | 67.82626 | 32.68745 | 22099 ft | 345 kts | 169° |
| 2026-04-27 17:06 | 67.79473 | 32.70190 | 22576 ft | 346 kts | 169° |
| 2026-04-27 17:06 | 67.77085 | 32.71261 | 22910 ft | 348 kts | 169° |
| 2026-04-27 17:06 | 67.74700 | 32.72277 | 23219 ft | 350 kts | 170° |
| 2026-04-27 17:06 | 67.72290 | 32.73235 | 23523 ft | 352 kts | 171° |
| 2026-04-27 17:07 | 67.69859 | 32.74125 | 23794 ft | 354 kts | 172° |
| 2026-04-27 17:07 | 67.67402 | 32.74945 | 24048 ft | 357 kts | 173° |
| 2026-04-27 17:07 | 67.64934 | 32.75688 | 24319 ft | 360 kts | 174° |
| 2026-04-27 17:07 | 67.62443 | 32.76354 | 24593 ft | 361 kts | 174° |
| 2026-04-27 17:08 | 67.59931 | 32.76937 | 24869 ft | 363 kts | 175° |
| 2026-04-27 17:08 | 67.57417 | 32.77428 | 25144 ft | 365 kts | 176° |
| 2026-04-27 17:08 | 67.54880 | 32.77824 | 25423 ft | 366 kts | 178° |
| 2026-04-27 17:08 | 67.52333 | 32.78119 | 25701 ft | 367 kts | 178° |
| 2026-04-27 17:09 | 67.49772 | 32.78308 | 25978 ft | 369 kts | 180° |
| 2026-04-27 17:09 | 67.47212 | 32.78381 | 26197 ft | 371 kts | 181° |
| 2026-04-27 17:09 | 67.44622 | 32.78577 | 26408 ft | 375 kts | 175° |
| 2026-04-27 17:09 | 67.42046 | 32.79635 | 26709 ft | 375 kts | 169° |
| 2026-04-27 17:10 | 67.39503 | 32.81176 | 26974 ft | 376 kts | 166° |
| 2026-04-27 17:10 | 67.36972 | 32.82978 | 27206 ft | 378 kts | 165° |
| 2026-04-27 17:10 | 67.34456 | 32.84904 | 27468 ft | 379 kts | 164° |
| 2026-04-27 17:10 | 67.31927 | 32.86902 | 27729 ft | 380 kts | 164° |
| 2026-04-27 17:11 | 67.29397 | 32.88930 | 27981 ft | 381 kts | 163° |
| 2026-04-27 17:11 | 67.24363 | 32.92975 | 28629 ft | 378 kts | 163° |
| 2026-04-27 17:11 | 67.21853 | 32.94969 | 28937 ft | 377 kts | 164° |
| 2026-04-27 17:12 | 67.16865 | 32.98908 | 29544 ft | 373 kts | 164° |
| 2026-04-27 17:12 | 67.14401 | 33.00843 | 29873 ft | 370 kts | 164° |
| 2026-04-27 17:12 | 67.11951 | 33.02764 | 30184 ft | 367 kts | 164° |
| 2026-04-27 17:13 | 67.09518 | 33.04668 | 30462 ft | 365 kts | 164° |
| 2026-04-27 17:13 | 67.07108 | 33.06549 | 30708 ft | 363 kts | 164° |
| 2026-04-27 17:13 | 67.04702 | 33.08423 | 30930 ft | 361 kts | 164° |
| 2026-04-27 17:13 | 67.02297 | 33.10292 | 31033 ft | 363 kts | 164° |
| 2026-04-27 17:14 | 66.99862 | 33.12141 | 30983 ft | 366 kts | 165° |
| 2026-04-27 17:14 | 66.95037 | 33.15708 | 30842 ft | 360 kts | 165° |
| 2026-04-27 17:15 | 66.90231 | 33.19219 | 30856 ft | 357 kts | 165° |
| 2026-04-27 17:15 | 66.85448 | 33.22694 | 30863 ft | 359 kts | 165° |
| 2026-04-27 17:16 | 66.80650 | 33.26200 | 30868 ft | 359 kts | 165° |
| 2026-04-27 17:16 | 66.75850 | 33.29740 | 30866 ft | 358 kts | 165° |
| 2026-04-27 17:17 | 66.71411 | 33.32989 | 30865 ft | 357 kts | 166° |
| 2026-04-27 17:17 | 66.66724 | 33.36346 | 30865 ft | 356 kts | 166° |
| 2026-04-27 17:18 | 66.61037 | 33.40390 | 30866 ft | 356 kts | 166° |
| 2026-04-27 17:18 | 66.56280 | 33.43766 | 30865 ft | 356 kts | 166° |
| 2026-04-27 17:19 | 66.51507 | 33.47064 | 30866 ft | 356 kts | 166° |
| 2026-04-27 17:19 | 66.46745 | 33.50369 | 30867 ft | 356 kts | 166° |
| 2026-04-27 17:20 | 66.41969 | 33.53649 | 30866 ft | 356 kts | 166° |
| 2026-04-27 17:20 | 66.37208 | 33.56951 | 30864 ft | 356 kts | 166° |
| 2026-04-27 17:21 | 66.32440 | 33.60263 | 30864 ft | 356 kts | 166° |
| 2026-04-27 17:21 | 66.27677 | 33.63519 | 30865 ft | 356 kts | 166° |
| 2026-04-27 17:22 | 66.22897 | 33.66705 | 30867 ft | 356 kts | 167° |
| 2026-04-27 17:22 | 66.18153 | 33.69920 | 30864 ft | 353 kts | 167° |
| 2026-04-27 17:23 | 66.13428 | 33.73142 | 30865 ft | 352 kts | 167° |
| 2026-04-27 17:23 | 66.08716 | 33.76358 | 30867 ft | 352 kts | 167° |
| 2026-04-27 17:24 | 66.04003 | 33.79514 | 30863 ft | 350 kts | 167° |
| 2026-04-27 17:24 | 65.99329 | 33.82643 | 30863 ft | 349 kts | 167° |
| 2026-04-27 17:25 | 65.94644 | 33.85743 | 30864 ft | 349 kts | 167° |
| 2026-04-27 17:25 | 65.89955 | 33.88785 | 30865 ft | 349 kts | 167° |
| 2026-04-27 17:26 | 65.85260 | 33.91802 | 30865 ft | 349 kts | 168° |
| 2026-04-27 17:26 | 65.80578 | 33.94804 | 30865 ft | 349 kts | 167° |
| 2026-04-27 17:27 | 65.75890 | 33.97810 | 30867 ft | 349 kts | 167° |
| 2026-04-27 17:27 | 65.71220 | 34.00811 | 30868 ft | 348 kts | 168° |
| 2026-04-27 17:28 | 65.66564 | 34.03853 | 30863 ft | 344 kts | 168° |
| 2026-04-27 17:29 | 65.59654 | 34.08391 | 30866 ft | 344 kts | 167° |
| 2026-04-27 17:29 | 65.55048 | 34.11414 | 30867 ft | 344 kts | 167° |
| 2026-04-27 17:30 | 65.50852 | 34.14166 | 30866 ft | 344 kts | 167° |
| 2026-04-27 17:30 | 65.43510 | 34.18975 | 30868 ft | 344 kts | 167° |
| 2026-04-27 17:31 | 65.38850 | 34.22005 | 30869 ft | 344 kts | 168° |
| 2026-04-27 17:31 | 65.34228 | 34.24883 | 30867 ft | 344 kts | 168° |
| 2026-04-27 17:32 | 65.27298 | 34.29177 | 30868 ft | 341 kts | 168° |
| 2026-04-27 17:33 | 65.22730 | 34.32025 | 30868 ft | 340 kts | 168° |
| 2026-04-27 17:33 | 65.18174 | 34.34914 | 30869 ft | 338 kts | 168° |
| 2026-04-27 17:34 | 65.13659 | 34.37747 | 30868 ft | 335 kts | 169° |
| 2026-04-27 17:34 | 65.09154 | 34.40517 | 30871 ft | 336 kts | 169° |
| 2026-04-27 17:35 | 65.04638 | 34.43350 | 30872 ft | 336 kts | 169° |
| 2026-04-27 17:35 | 65.00119 | 34.46148 | 30873 ft | 336 kts | 169° |
| 2026-04-27 17:36 | 64.95611 | 34.48942 | 30871 ft | 336 kts | 169° |
| 2026-04-27 17:36 | 64.91118 | 34.51957 | 30873 ft | 336 kts | 167° |
| 2026-04-27 17:37 | 64.86661 | 34.55202 | 30874 ft | 336 kts | 166° |
| 2026-04-27 17:37 | 64.82196 | 34.58503 | 30880 ft | 337 kts | 166° |
| 2026-04-27 17:38 | 64.77734 | 34.61812 | 30877 ft | 337 kts | 166° |
| 2026-04-27 17:38 | 64.73268 | 34.65126 | 30878 ft | 337 kts | 166° |
| 2026-04-27 17:39 | 64.68818 | 34.68440 | 30879 ft | 336 kts | 166° |
| 2026-04-27 17:39 | 64.64381 | 34.71715 | 30962 ft | 336 kts | 166° |
| 2026-04-27 17:40 | 64.59893 | 34.74950 | 31007 ft | 341 kts | 166° |
| 2026-04-27 17:40 | 64.55343 | 34.78219 | 31021 ft | 343 kts | 166° |
| 2026-04-27 17:41 | 64.50800 | 34.81521 | 31023 ft | 341 kts | 166° |
| 2026-04-27 17:41 | 64.46297 | 34.84802 | 31022 ft | 340 kts | 167° |
| 2026-04-27 17:42 | 64.41769 | 34.88038 | 31022 ft | 340 kts | 166° |
| 2026-04-27 17:42 | 64.37273 | 34.91396 | 31022 ft | 340 kts | 165° |
| 2026-04-27 17:43 | 64.32766 | 34.94770 | 31021 ft | 341 kts | 166° |
| 2026-04-27 17:43 | 64.28262 | 34.98106 | 31020 ft | 341 kts | 166° |
| 2026-04-27 17:44 | 64.23757 | 35.01462 | 31020 ft | 340 kts | 166° |
| 2026-04-27 17:44 | 64.19261 | 35.04817 | 31020 ft | 341 kts | 165° |
| 2026-04-27 17:45 | 64.14763 | 35.08209 | 31020 ft | 341 kts | 165° |
| 2026-04-27 17:45 | 64.10265 | 35.11543 | 31020 ft | 341 kts | 166° |
| 2026-04-27 17:46 | 64.05748 | 35.14852 | 31019 ft | 341 kts | 165° |
| 2026-04-27 17:46 | 64.01274 | 35.18348 | 31019 ft | 341 kts | 164° |
| 2026-04-27 17:47 | 63.96800 | 35.21916 | 31019 ft | 341 kts | 164° |
| 2026-04-27 17:47 | 63.92328 | 35.25498 | 31018 ft | 341 kts | 164° |
| 2026-04-27 17:48 | 63.87863 | 35.29071 | 31018 ft | 340 kts | 164° |
| 2026-04-27 17:48 | 63.83406 | 35.32668 | 31018 ft | 339 kts | 164° |
| 2026-04-27 17:49 | 63.78963 | 35.36247 | 31018 ft | 339 kts | 164° |
| 2026-04-27 17:49 | 63.74524 | 35.39784 | 31015 ft | 339 kts | 165° |
| 2026-04-27 17:50 | 63.70068 | 35.43215 | 31014 ft | 338 kts | 163° |
| 2026-04-27 17:50 | 63.63429 | 35.48388 | 31012 ft | 337 kts | 163° |
| 2026-04-27 17:51 | 63.58995 | 35.51686 | 31013 ft | 337 kts | 165° |
| 2026-04-27 17:51 | 63.54524 | 35.54873 | 31013 ft | 337 kts | 165° |
| 2026-04-27 17:52 | 63.50069 | 35.58017 | 31013 ft | 337 kts | 165° |
| 2026-04-27 17:52 | 63.46337 | 35.60643 | 31013 ft | 337 kts | 165° |
| 2026-04-27 17:53 | 63.41124 | 35.64293 | 31013 ft | 337 kts | 165° |
| 2026-04-27 17:53 | 63.36653 | 35.67314 | 31013 ft | 337 kts | 165° |
| 2026-04-27 17:54 | 63.32184 | 35.70395 | 31012 ft | 336 kts | 165° |
| 2026-04-27 17:54 | 63.29113 | 35.72476 | 31013 ft | 336 kts | 165° |
| 2026-04-27 17:55 | 63.23249 | 35.76466 | 31005 ft | 336 kts | 163° |
| 2026-04-27 17:55 | 63.18719 | 35.79520 | 31023 ft | 347 kts | 164° |
| 2026-04-27 17:56 | 63.14144 | 35.82699 | 31013 ft | 340 kts | 163° |
| 2026-04-27 17:56 | 63.09704 | 35.85826 | 31010 ft | 333 kts | 163° |
| 2026-04-27 17:57 | 63.05276 | 35.88899 | 31012 ft | 334 kts | 164° |
| 2026-04-27 17:57 | 63.00837 | 35.91910 | 31013 ft | 335 kts | 165° |
| 2026-04-27 17:58 | 62.96383 | 35.94897 | 31013 ft | 335 kts | 164° |
| 2026-04-27 17:58 | 62.91945 | 35.97883 | 31012 ft | 334 kts | 164° |
| 2026-04-27 17:59 | 62.87500 | 36.00888 | 31012 ft | 334 kts | 164° |
| 2026-04-27 17:59 | 62.83069 | 36.03908 | 31013 ft | 334 kts | 164° |
| 2026-04-27 18:00 | 62.78623 | 36.06828 | 31013 ft | 334 kts | 165° |
| 2026-04-27 18:00 | 62.74160 | 36.09709 | 31013 ft | 335 kts | 165° |
| 2026-04-27 18:01 | 62.69710 | 36.12617 | 31013 ft | 334 kts | 164° |
| 2026-04-27 18:01 | 62.65268 | 36.15557 | 31012 ft | 334 kts | 163° |
| 2026-04-27 18:02 | 62.60828 | 36.18502 | 31012 ft | 334 kts | 163° |
| 2026-04-27 18:02 | 62.56397 | 36.21442 | 31012 ft | 334 kts | 163° |
| 2026-04-27 18:03 | 62.51971 | 36.24377 | 31013 ft | 334 kts | 163° |
| 2026-04-27 18:03 | 62.47534 | 36.27314 | 31013 ft | 333 kts | 163° |
| 2026-04-27 18:04 | 62.43109 | 36.30218 | 31012 ft | 332 kts | 163° |
| 2026-04-27 18:04 | 62.38689 | 36.33110 | 31012 ft | 332 kts | 163° |
| 2026-04-27 18:05 | 62.34271 | 36.35997 | 31012 ft | 332 kts | 163° |
| 2026-04-27 18:05 | 62.29864 | 36.38876 | 31012 ft | 332 kts | 163° |
| 2026-04-27 18:06 | 62.25449 | 36.41759 | 31013 ft | 332 kts | 163° |
| 2026-04-27 18:06 | 62.21042 | 36.44616 | 31012 ft | 332 kts | 163° |
| 2026-04-27 18:07 | 62.16601 | 36.47393 | 31013 ft | 333 kts | 163° |
| 2026-04-27 18:07 | 62.12154 | 36.50136 | 31013 ft | 334 kts | 163° |
| 2026-04-27 18:08 | 62.07687 | 36.52897 | 31013 ft | 334 kts | 163° |
| 2026-04-27 18:08 | 62.03247 | 36.55735 | 31013 ft | 334 kts | 163° |
| 2026-04-27 18:09 | 61.99540 | 36.58067 | 30973 ft | 334 kts | 163° |
| 2026-04-27 18:09 | 61.94379 | 36.61322 | 30930 ft | 330 kts | 163° |
| 2026-04-27 18:10 | 61.90717 | 36.63652 | 30902 ft | 330 kts | 163° |
| 2026-04-27 18:10 | 61.86305 | 36.66411 | 30766 ft | 332 kts | 163° |
| 2026-04-27 18:11 | 61.84087 | 36.67793 | 30563 ft | 332 kts | 163° |
| 2026-04-27 18:11 | 61.81888 | 36.69146 | 30472 ft | 328 kts | 163° |
| 2026-04-27 18:11 | 61.77560 | 36.71783 | 30393 ft | 322 kts | 163° |
| 2026-04-27 18:12 | 61.73255 | 36.74395 | 30362 ft | 324 kts | 163° |
| 2026-04-27 18:12 | 61.68925 | 36.77091 | 30344 ft | 326 kts | 161° |
| 2026-04-27 18:13 | 61.64560 | 36.79848 | 30278 ft | 330 kts | 161° |
| 2026-04-27 18:13 | 61.60171 | 36.82627 | 30242 ft | 329 kts | 161° |
| 2026-04-27 18:14 | 61.55774 | 36.85411 | 30234 ft | 329 kts | 161° |
| 2026-04-27 18:14 | 61.52199 | 36.87650 | 30230 ft | 329 kts | 162° |
| 2026-04-27 18:15 | 61.46991 | 36.90769 | 30216 ft | 330 kts | 162° |
| 2026-04-27 18:15 | 61.42598 | 36.93436 | 30214 ft | 329 kts | 162° |
| 2026-04-27 18:16 | 61.38197 | 36.96081 | 30218 ft | 329 kts | 162° |
| 2026-04-27 18:16 | 61.33808 | 36.98756 | 30219 ft | 330 kts | 162° |
| 2026-04-27 18:17 | 61.29409 | 37.01412 | 30208 ft | 329 kts | 161° |
| 2026-04-27 18:17 | 61.25033 | 37.04140 | 30200 ft | 329 kts | 161° |
| 2026-04-27 18:18 | 61.20657 | 37.06918 | 30194 ft | 329 kts | 160° |
| 2026-04-27 18:18 | 61.16282 | 37.09788 | 30190 ft | 332 kts | 159° |
| 2026-04-27 18:19 | 61.11885 | 37.12694 | 30177 ft | 332 kts | 159° |
| 2026-04-27 18:19 | 61.07485 | 37.15489 | 30174 ft | 332 kts | 160° |
| 2026-04-27 18:20 | 61.03065 | 37.18244 | 30179 ft | 332 kts | 160° |
| 2026-04-27 18:20 | 60.98654 | 37.21003 | 30180 ft | 332 kts | 160° |
| 2026-04-27 18:21 | 60.94240 | 37.23802 | 30169 ft | 332 kts | 160° |
| 2026-04-27 18:21 | 60.89837 | 37.26568 | 30164 ft | 332 kts | 160° |
| 2026-04-27 18:22 | 60.85430 | 37.29353 | 30157 ft | 331 kts | 160° |
| 2026-04-27 18:22 | 60.81037 | 37.32070 | 30149 ft | 330 kts | 160° |
| 2026-04-27 18:23 | 60.76636 | 37.34776 | 30131 ft | 330 kts | 160° |
| 2026-04-27 18:23 | 60.72249 | 37.37478 | 30125 ft | 330 kts | 158° |
| 2026-04-27 18:24 | 60.67831 | 37.40286 | 30137 ft | 335 kts | 158° |
| 2026-04-27 18:24 | 60.63381 | 37.43112 | 30138 ft | 336 kts | 159° |
| 2026-04-27 18:25 | 60.58910 | 37.45845 | 30123 ft | 335 kts | 159° |
| 2026-04-27 18:25 | 60.54479 | 37.48537 | 30110 ft | 330 kts | 159° |
| 2026-04-27 18:26 | 60.50086 | 37.51212 | 30113 ft | 332 kts | 159° |
| 2026-04-27 18:26 | 60.45632 | 37.53910 | 30094 ft | 336 kts | 159° |
| 2026-04-27 18:27 | 60.41122 | 37.56390 | 30071 ft | 336 kts | 161° |
| 2026-04-27 18:27 | 60.36589 | 37.58687 | 30066 ft | 336 kts | 161° |
| 2026-04-27 18:28 | 60.32050 | 37.60881 | 30070 ft | 337 kts | 162° |
| 2026-04-27 18:28 | 60.27490 | 37.63061 | 30068 ft | 337 kts | 162° |
| 2026-04-27 18:29 | 60.22926 | 37.65239 | 30055 ft | 337 kts | 161° |
| 2026-04-27 18:29 | 60.18351 | 37.67444 | 30052 ft | 341 kts | 161° |
| 2026-04-27 18:30 | 60.13711 | 37.69696 | 30047 ft | 344 kts | 161° |
| 2026-04-27 18:30 | 60.09074 | 37.71949 | 30034 ft | 343 kts | 161° |
| 2026-04-27 18:31 | 60.04433 | 37.74201 | 30029 ft | 343 kts | 161° |
| 2026-04-27 18:31 | 59.99789 | 37.76414 | 30036 ft | 344 kts | 162° |
| 2026-04-27 18:32 | 59.95109 | 37.78309 | 30047 ft | 343 kts | 163° |
| 2026-04-27 18:32 | 59.90419 | 37.80065 | 30046 ft | 344 kts | 164° |
| 2026-04-27 18:33 | 59.85706 | 37.81711 | 30043 ft | 344 kts | 165° |
| 2026-04-27 18:33 | 59.81005 | 37.83366 | 30039 ft | 344 kts | 164° |
| 2026-04-27 18:34 | 59.76297 | 37.85021 | 30037 ft | 344 kts | 164° |
| 2026-04-27 18:34 | 59.71588 | 37.86706 | 30034 ft | 344 kts | 164° |
| 2026-04-27 18:35 | 59.66870 | 37.88387 | 30036 ft | 348 kts | 164° |
| 2026-04-27 18:35 | 59.62087 | 37.90053 | 30037 ft | 350 kts | 164° |
| 2026-04-27 18:36 | 59.57309 | 37.91787 | 30036 ft | 350 kts | 164° |
| 2026-04-27 18:36 | 59.52513 | 37.93459 | 30036 ft | 350 kts | 165° |
| 2026-04-27 18:37 | 59.47718 | 37.95105 | 30036 ft | 350 kts | 165° |
| 2026-04-27 18:37 | 59.42936 | 37.96743 | 30037 ft | 350 kts | 165° |
| 2026-04-27 18:38 | 59.38139 | 37.98386 | 30037 ft | 350 kts | 165° |
| 2026-04-27 18:38 | 59.33350 | 38.00028 | 30036 ft | 350 kts | 165° |
| 2026-04-27 18:39 | 59.28553 | 38.01668 | 30037 ft | 351 kts | 165° |
| 2026-04-27 18:39 | 59.23669 | 38.02113 | 30035 ft | 353 kts | 176° |
| 2026-04-27 18:40 | 59.18757 | 38.01458 | 30042 ft | 356 kts | 179° |
| 2026-04-27 18:40 | 59.13846 | 38.00518 | 30034 ft | 353 kts | 181° |
| 2026-04-27 18:41 | 59.08933 | 37.99529 | 30040 ft | 358 kts | 181° |
| 2026-04-27 18:41 | 59.03960 | 37.98531 | 30044 ft | 361 kts | 181° |
| 2026-04-27 18:42 | 58.99794 | 37.97696 | 30045 ft | 361 kts | 181° |
| 2026-04-27 18:42 | 58.93983 | 37.96571 | 30048 ft | 360 kts | 181° |
| 2026-04-27 18:43 | 58.88987 | 37.95715 | 30050 ft | 361 kts | 180° |
| 2026-04-27 18:43 | 58.84002 | 37.94845 | 30052 ft | 360 kts | 180° |
| 2026-04-27 18:44 | 58.79008 | 37.94053 | 30054 ft | 360 kts | 180° |
| 2026-04-27 18:44 | 58.74024 | 37.93282 | 30056 ft | 360 kts | 180° |
| 2026-04-27 18:45 | 58.69023 | 37.92501 | 30060 ft | 361 kts | 182° |
| 2026-04-27 18:45 | 58.64022 | 37.91742 | 30072 ft | 363 kts | 181° |
| 2026-04-27 18:46 | 58.58992 | 37.91058 | 30083 ft | 363 kts | 181° |
| 2026-04-27 18:46 | 58.53950 | 37.90397 | 30090 ft | 363 kts | 181° |
| 2026-04-27 18:47 | 58.49052 | 37.89764 | 30098 ft | 363 kts | 181° |
| 2026-04-27 18:47 | 58.43874 | 37.89102 | 30104 ft | 363 kts | 181° |
| 2026-04-27 18:48 | 58.38833 | 37.88461 | 30108 ft | 363 kts | 181° |
| 2026-04-27 18:48 | 58.33806 | 37.87825 | 30111 ft | 363 kts | 181° |
| 2026-04-27 18:49 | 58.28766 | 37.87194 | 30113 ft | 363 kts | 181° |
| 2026-04-27 18:49 | 58.26246 | 37.86880 | 29977 ft | 366 kts | 181° |
| 2026-04-27 18:49 | 58.24960 | 37.86720 | 29884 ft | 366 kts | 181° |
| 2026-04-27 18:50 | 58.21169 | 37.86237 | 29595 ft | 365 kts | 182° |
| 2026-04-27 18:50 | 58.18646 | 37.85879 | 29390 ft | 363 kts | 182° |
| 2026-04-27 18:50 | 58.16142 | 37.85506 | 29186 ft | 362 kts | 182° |
| 2026-04-27 18:50 | 58.13632 | 37.85141 | 28979 ft | 361 kts | 182° |
| 2026-04-27 18:51 | 58.11134 | 37.84808 | 28773 ft | 360 kts | 182° |
| 2026-04-27 18:51 | 58.08653 | 37.84468 | 28618 ft | 357 kts | 182° |
| 2026-04-27 18:51 | 58.06184 | 37.84126 | 28474 ft | 356 kts | 182° |
| 2026-04-27 18:51 | 58.03714 | 37.83781 | 28326 ft | 356 kts | 182° |
| 2026-04-27 18:52 | 58.01238 | 37.83433 | 28184 ft | 357 kts | 182° |
| 2026-04-27 18:52 | 57.98769 | 37.83114 | 28047 ft | 356 kts | 182° |
| 2026-04-27 18:52 | 57.96294 | 37.82801 | 27911 ft | 356 kts | 182° |
| 2026-04-27 18:53 | 57.91356 | 37.82119 | 27564 ft | 357 kts | 182° |
| 2026-04-27 18:53 | 57.88888 | 37.81799 | 27313 ft | 357 kts | 182° |
| 2026-04-27 18:53 | 57.86414 | 37.81458 | 27064 ft | 356 kts | 182° |
| 2026-04-27 18:53 | 57.83955 | 37.81115 | 26811 ft | 354 kts | 182° |
| 2026-04-27 18:54 | 57.81511 | 37.80790 | 26553 ft | 351 kts | 182° |
| 2026-04-27 18:54 | 57.79092 | 37.80472 | 26297 ft | 349 kts | 181° |
| 2026-04-27 18:54 | 57.76674 | 37.80155 | 26037 ft | 348 kts | 181° |
| 2026-04-27 18:54 | 57.74265 | 37.79838 | 25776 ft | 346 kts | 181° |
| 2026-04-27 18:55 | 57.72306 | 37.79578 | 25566 ft | 345 kts | 182° |
| 2026-04-27 18:55 | 57.69486 | 37.79193 | 25256 ft | 344 kts | 181° |
| 2026-04-27 18:55 | 57.67100 | 37.78840 | 24987 ft | 344 kts | 179° |
| 2026-04-27 18:55 | 57.64736 | 37.78487 | 24801 ft | 340 kts | 180° |
| 2026-04-27 18:56 | 57.62399 | 37.78145 | 24574 ft | 334 kts | 181° |
| 2026-04-27 18:56 | 57.60091 | 37.77806 | 24293 ft | 332 kts | 183° |
| 2026-04-27 18:56 | 57.57783 | 37.77467 | 24000 ft | 334 kts | 184° |
| 2026-04-27 18:56 | 57.55456 | 37.77133 | 23728 ft | 337 kts | 184° |
| 2026-04-27 18:57 | 57.53116 | 37.76783 | 23473 ft | 338 kts | 184° |
| 2026-04-27 18:57 | 57.50786 | 37.76421 | 23226 ft | 338 kts | 184° |
| 2026-04-27 18:57 | 57.48446 | 37.76084 | 22979 ft | 337 kts | 184° |
| 2026-04-27 18:57 | 57.46114 | 37.75761 | 22734 ft | 336 kts | 184° |
| 2026-04-27 18:58 | 57.43789 | 37.75446 | 22488 ft | 335 kts | 184° |
| 2026-04-27 18:58 | 57.42254 | 37.75245 | 22326 ft | 334 kts | 184° |
| 2026-04-27 18:58 | 57.39149 | 37.74849 | 21997 ft | 333 kts | 184° |
| 2026-04-27 18:58 | 57.36836 | 37.74553 | 21724 ft | 334 kts | 183° |
| 2026-04-27 18:59 | 57.34517 | 37.74253 | 21461 ft | 337 kts | 183° |
| 2026-04-27 18:59 | 57.32178 | 37.73951 | 21213 ft | 337 kts | 183° |
| 2026-04-27 18:59 | 57.29834 | 37.73655 | 20969 ft | 337 kts | 182° |
| 2026-04-27 18:59 | 57.27510 | 37.73357 | 20729 ft | 335 kts | 183° |
| 2026-04-27 19:00 | 57.25194 | 37.73057 | 20487 ft | 334 kts | 182° |
| 2026-04-27 19:00 | 57.22877 | 37.72760 | 20244 ft | 333 kts | 182° |
| 2026-04-27 19:00 | 57.20571 | 37.72473 | 20018 ft | 330 kts | 185° |
| 2026-04-27 19:00 | 57.18301 | 37.72184 | 19791 ft | 327 kts | 185° |
| 2026-04-27 19:01 | 57.16049 | 37.71895 | 19553 ft | 324 kts | 185° |
| 2026-04-27 19:01 | 57.13826 | 37.71610 | 19407 ft | 319 kts | 185° |
| 2026-04-27 19:01 | 57.11621 | 37.71303 | 19325 ft | 317 kts | 186° |
| 2026-04-27 19:01 | 57.09416 | 37.70936 | 19246 ft | 319 kts | 188° |
| 2026-04-27 19:02 | 57.07255 | 37.70338 | 19180 ft | 320 kts | 191° |
| 2026-04-27 19:02 | 57.05051 | 37.69880 | 19054 ft | 323 kts | 183° |
| 2026-04-27 19:02 | 57.03546 | 37.69890 | 18926 ft | 323 kts | 179° |
| 2026-04-27 19:02 | 57.00553 | 37.70287 | 18499 ft | 324 kts | 175° |
| 2026-04-27 19:03 | 56.98320 | 37.70723 | 18173 ft | 322 kts | 174° |
| 2026-04-27 19:03 | 56.96845 | 37.71036 | 17954 ft | 320 kts | 173° |
| 2026-04-27 19:03 | 56.93909 | 37.71681 | 17510 ft | 318 kts | 173° |
| 2026-04-27 19:03 | 56.93183 | 37.71843 | 17399 ft | 317 kts | 173° |
| 2026-04-27 19:04 | 56.90394 | 37.72468 | 16970 ft | 315 kts | 173° |
| 2026-04-27 19:04 | 56.88109 | 37.72981 | 16617 ft | 313 kts | 173° |
| 2026-04-27 19:04 | 56.85955 | 37.73452 | 16284 ft | 311 kts | 174° |
| 2026-04-27 19:04 | 56.83807 | 37.73902 | 15956 ft | 310 kts | 174° |
| 2026-04-27 19:05 | 56.81677 | 37.74345 | 15636 ft | 308 kts | 174° |
| 2026-04-27 19:05 | 56.79572 | 37.74789 | 15326 ft | 306 kts | 174° |
| 2026-04-27 19:05 | 56.77468 | 37.75240 | 15022 ft | 304 kts | 175° |
| 2026-04-27 19:05 | 56.75369 | 37.75693 | 14730 ft | 301 kts | 175° |
| 2026-04-27 19:06 | 56.73309 | 37.76123 | 14446 ft | 298 kts | 176° |
| 2026-04-27 19:06 | 56.71261 | 37.76551 | 14175 ft | 295 kts | 176° |
| 2026-04-27 19:06 | 56.69233 | 37.76974 | 13897 ft | 292 kts | 176° |
| 2026-04-27 19:06 | 56.67223 | 37.77403 | 13614 ft | 290 kts | 176° |
| 2026-04-27 19:07 | 56.65239 | 37.77838 | 13329 ft | 288 kts | 176° |
| 2026-04-27 19:07 | 56.63257 | 37.78273 | 13041 ft | 286 kts | 176° |
| 2026-04-27 19:07 | 56.61295 | 37.78698 | 12752 ft | 284 kts | 176° |
| 2026-04-27 19:07 | 56.59337 | 37.79116 | 12461 ft | 282 kts | 176° |
| 2026-04-27 19:08 | 56.57395 | 37.79529 | 12190 ft | 280 kts | 176° |
| 2026-04-27 19:08 | 56.55475 | 37.79946 | 12004 ft | 276 kts | 176° |
| 2026-04-27 19:08 | 56.53569 | 37.80343 | 11817 ft | 276 kts | 177° |
| 2026-04-27 19:08 | 56.51658 | 37.80734 | 11640 ft | 277 kts | 177° |
| 2026-04-27 19:09 | 56.49756 | 37.81129 | 11472 ft | 277 kts | 177° |
| 2026-04-27 19:09 | 56.47847 | 37.81535 | 11305 ft | 276 kts | 177° |
| 2026-04-27 19:09 | 56.45945 | 37.81947 | 11140 ft | 275 kts | 177° |
| 2026-04-27 19:09 | 56.44053 | 37.82341 | 10976 ft | 274 kts | 178° |
| 2026-04-27 19:10 | 56.42180 | 37.82724 | 10814 ft | 273 kts | 178° |
| 2026-04-27 19:10 | 56.40286 | 37.83115 | 10650 ft | 272 kts | 178° |
| 2026-04-27 19:10 | 56.38404 | 37.83508 | 10483 ft | 272 kts | 178° |
| 2026-04-27 19:10 | 56.37153 | 37.83776 | 10377 ft | 271 kts | 178° |
| 2026-04-27 19:11 | 56.34666 | 37.84296 | 10164 ft | 269 kts | 179° |
| 2026-04-27 19:11 | 56.32816 | 37.84674 | 10003 ft | 268 kts | 179° |
| 2026-04-27 19:11 | 56.30968 | 37.85057 | 9843 ft | 267 kts | 179° |
| 2026-04-27 19:11 | 56.29126 | 37.85448 | 9683 ft | 266 kts | 179° |
| 2026-04-27 19:12 | 56.27290 | 37.85838 | 9523 ft | 265 kts | 179° |
| 2026-04-27 19:12 | 56.25473 | 37.86207 | 9365 ft | 264 kts | 180° |
| 2026-04-27 19:12 | 56.23652 | 37.86577 | 9208 ft | 263 kts | 181° |
| 2026-04-27 19:12 | 56.21844 | 37.86960 | 9062 ft | 260 kts | 182° |
| 2026-04-27 19:13 | 56.20063 | 37.87332 | 8910 ft | 258 kts | 183° |
| 2026-04-27 19:13 | 56.18290 | 37.87704 | 8751 ft | 256 kts | 182° |
| 2026-04-27 19:13 | 56.16522 | 37.88074 | 8591 ft | 255 kts | 183° |
| 2026-04-27 19:13 | 56.14761 | 37.88420 | 8430 ft | 255 kts | 184° |
| 2026-04-27 19:14 | 56.13008 | 37.88755 | 8271 ft | 254 kts | 184° |
| 2026-04-27 19:14 | 56.11246 | 37.89095 | 8112 ft | 256 kts | 183° |
| 2026-04-27 19:14 | 56.09487 | 37.89572 | 7917 ft | 257 kts | 179° |
| 2026-04-27 19:14 | 56.07773 | 37.90469 | 7875 ft | 254 kts | 168° |
| 2026-04-27 19:15 | 56.06245 | 37.92023 | 7782 ft | 257 kts | 150° |
| 2026-04-27 19:15 | 56.04926 | 37.94235 | 7575 ft | 263 kts | 138° |
| 2026-04-27 19:15 | 56.03726 | 37.96770 | 7454 ft | 270 kts | 134° |
| 2026-04-27 19:15 | 56.02862 | 37.98757 | 7428 ft | 271 kts | 132° |
| 2026-04-27 19:16 | 56.01483 | 38.02105 | 7436 ft | 269 kts | 130° |
| 2026-04-27 19:16 | 56.00766 | 38.03937 | 7333 ft | 272 kts | 129° |
| 2026-04-27 19:16 | 55.99267 | 38.07541 | 7209 ft | 271 kts | 133° |
| 2026-04-27 19:16 | 55.98103 | 38.10186 | 6984 ft | 271 kts | 133° |
| 2026-04-27 19:17 | 55.96931 | 38.12838 | 6719 ft | 273 kts | 133° |
| 2026-04-27 19:17 | 55.95769 | 38.15512 | 6493 ft | 272 kts | 133° |
| 2026-04-27 19:17 | 55.94639 | 38.18166 | 6248 ft | 265 kts | 131° |
| 2026-04-27 19:17 | 55.93552 | 38.20748 | 5973 ft | 258 kts | 132° |
| 2026-04-27 19:18 | 55.92468 | 38.23249 | 5674 ft | 251 kts | 133° |
| 2026-04-27 19:18 | 55.91411 | 38.25672 | 5270 ft | 248 kts | 134° |
| 2026-04-27 19:18 | 55.90348 | 38.28064 | 4878 ft | 245 kts | 135° |
| 2026-04-27 19:18 | 55.89296 | 38.30417 | 4521 ft | 241 kts | 135° |
| 2026-04-27 19:19 | 55.88255 | 38.32733 | 4149 ft | 239 kts | 136° |
| 2026-04-27 19:19 | 55.87207 | 38.35018 | 3713 ft | 240 kts | 136° |
| 2026-04-27 19:19 | 55.86777 | 38.35937 | 3548 ft | 240 kts | 137° |
| 2026-04-27 19:19 | 55.84758 | 38.38479 | 2929 ft | 206 kts | 178° |
| 2026-04-27 19:20 | 55.83437 | 38.38507 | 2593 ft | 180 kts | 208° |
| 2026-04-27 19:20 | 55.82357 | 38.37662 | 2430 ft | 162 kts | 220° |
| 2026-04-27 19:20 | 55.81386 | 38.36804 | 2350 ft | 148 kts | 220° |
| 2026-04-27 19:20 | 55.80507 | 38.35925 | 2386 ft | 146 kts | 225° |
| 2026-04-27 19:21 | 55.79731 | 38.34782 | 2523 ft | 139 kts | 237° |
| 2026-04-27 19:21 | 55.79314 | 38.33335 | 2579 ft | 129 kts | 256° |
| 2026-04-27 19:21 | 55.79189 | 38.31813 | 2613 ft | 121 kts | 268° |
| 2026-04-27 19:21 | 55.79158 | 38.30292 | 2501 ft | 125 kts | 276° |
| 2026-04-27 19:22 | 55.79204 | 38.28788 | 2544 ft | 118 kts | 277° |
| 2026-04-27 19:22 | 55.79320 | 38.27348 | 2476 ft | 121 kts | 280° |
| 2026-04-27 19:22 | 55.79449 | 38.25810 | 2333 ft | 128 kts | 281° |
| 2026-04-27 19:22 | 55.79557 | 38.24286 | 2417 ft | 119 kts | 281° |
| 2026-04-27 19:23 | 55.79839 | 38.22968 | 2368 ft | 116 kts | 302° |
| 2026-04-27 19:23 | 55.80440 | 38.21998 | 2353 ft | 118 kts | 311° |
| 2026-04-27 19:23 | 55.80979 | 38.21054 | 2346 ft | 112 kts | 308° |
| 2026-04-27 19:23 | 55.80987 | 38.21038 | 2345 ft | 112 kts | 307° |
| 2026-04-27 19:24 | 55.81479 | 38.20004 | 2309 ft | 109 kts | 306° |
| 2026-04-27 19:24 | 55.81946 | 38.19086 | 2186 ft | 97 kts | 303° |
| 2026-04-27 19:24 | 55.82444 | 38.18287 | 2003 ft | 98 kts | 306° |
| 2026-04-27 19:24 | 55.82904 | 38.17387 | 1811 ft | 97 kts | 301° |
| 2026-04-27 19:25 | 55.83043 | 38.17011 | 1748 ft | 97 kts | 300° |
| 2026-04-27 19:25 | 55.83233 | 38.16509 | 1644 ft | 100 kts | 297° |
| 2026-04-27 19:25 | 55.83662 | 38.15493 | 1518 ft | 107 kts | 303° |
| 2026-04-27 19:25 | 55.84139 | 38.14508 | 1492 ft | 103 kts | 305° |
| 2026-04-27 19:26 | 55.84613 | 38.13549 | 1330 ft | 105 kts | 299° |
| 2026-04-27 19:26 | 55.85072 | 38.12538 | 1175 ft | 106 kts | 300° |
| 2026-04-27 19:26 | 55.85537 | 38.11556 | 1070 ft | 105 kts | 302° |
| 2026-04-27 19:26 | 55.86002 | 38.10532 | 905 ft | 108 kts | 302° |
| 2026-04-27 19:27 | 55.86054 | 38.10422 | 891 ft | 108 kts | 302° |
| 2026-04-27 19:27 | 55.86285 | 38.09962 | 879 ft | 106 kts | 303° |
| 2026-04-27 19:27 | 55.86769 | 38.08986 | 699 ft | 103 kts | 303° |
| 2026-04-27 19:27 | 55.86967 | 38.08579 | 626 ft | 101 kts | 303° |
| 2026-04-27 19:28 | 55.87393 | 38.07643 | 533 ft | 90 kts | 307° |
| 2026-04-27 19:28 | 55.87733 | 38.06936 | 503 ft | 58 kts | 307° |
| 2026-04-27 19:28 | 55.87864 | 38.06665 | 503 ft | 36 kts | 309° |
| 2026-04-27 19:29 | 55.87962 | 38.06458 | 503 ft | 25 kts | 310° |
| 2026-04-27 19:29 | 55.88066 | 38.06242 | 503 ft | 22 kts | 310° |
| 2026-04-27 19:30 | 55.88168 | 38.06033 | 503 ft | 23 kts | 309° |
| 2026-04-27 19:30 | 55.88271 | 38.05810 | 503 ft | 24 kts | 311° |
| 2026-04-27 19:30 | 55.88384 | 38.05584 | 503 ft | 25 kts | 311° |
| 2026-04-27 19:30 | 55.88494 | 38.05351 | 503 ft | 24 kts | 307° |
| 2026-04-27 19:31 | 55.88595 | 38.05108 | 503 ft | 25 kts | 307° |
| 2026-04-27 19:31 | 55.88709 | 38.04866 | 503 ft | 26 kts | 310° |
| 2026-04-27 19:31 | 55.88831 | 38.04620 | 503 ft | 27 kts | 311° |
| 2026-04-27 19:31 | 55.88933 | 38.04413 | 503 ft | 17 kts | 310° |
| 2026-04-27 19:32 | 55.88971 | 38.04302 | 503 ft | 8 kts | 262° |
| 2026-04-27 19:32 | 55.88935 | 38.04256 | 503 ft | 8 kts | 196° |
| 2026-04-27 19:32 | 55.88862 | 38.04227 | 503 ft | 13 kts | 192° |
| 2026-04-27 19:32 | 55.88768 | 38.04194 | 503 ft | 14 kts | 188° |
| 2026-04-27 19:33 | 55.88661 | 38.04145 | 503 ft | 18 kts | 199° |
| 2026-04-27 19:33 | 55.88587 | 38.04103 | 503 ft | 17 kts | 195° |
| 2026-04-27 19:33 | 55.88488 | 38.04025 | 503 ft | 8 kts | 215° |
| 2026-04-27 19:33 | 55.88454 | 38.04021 | 503 ft | 4 kts | 148° |
| 2026-04-27 19:34 | 55.88453 | 38.04022 | 503 ft | 0 kts | 148° |
| 2026-04-27 19:34 | 55.88452 | 38.04022 | 503 ft | 0 kts | 148° |
| 2026-04-27 19:34 | 55.88452 | 38.04023 | 503 ft | 0 kts | 148° |